This demonstration page uses our WeatherBlox Daily Observations layout. Learn more.

Left ArrowRight Arrow

39.92423, -83.80882

Hourly Observations for March 1, 2020

Temp ( °F °C ) Dew Point ( °F °C ) Humidity (%) Winds ( mph kmh ) Pressure ( in mb ) Visibility ( mi km ) Precip ( " mm )
12:56 am 00:56 Clear 25 -3.9 18 -7.8 75 75 SSW 6 9 30.22 1024 10 16.0934 0.21 5.334
1:56 am 01:56 Clear 24 -4.4 17 -8.3 75 75 SSW 5 7 30.23 1024 10 16.0934 0.47 11.938
2:56 am 02:56 Clear 24 -4.4 17 -8.3 75 75 SSW 5 7 30.21 1023 10 16.0934 0 0
3:56 am 03:56 Clear 25 -3.9 16 -8.9 69 69 S 5 7 30.2 1023 10 16.0934 0 0
4:56 am 04:56 Clear 23 -5 16 -8.9 74 74 S 6 9 30.2 1023 10 16.0934 0 0
5:56 am 05:56 Clear 23 -5 16 -8.9 74 74 SSE 6 9 30.21 1023 10 16.0934 0 0
6:56 am 06:56 Clear 21 -6.1 15 -9.4 78 78 SE 6 9 30.2 1023 10 16.0934 0 0
7:56 am 07:56 Sunny 26 -3.3 18 -7.8 71 71 S 8 13 30.19 1022 10 16.0934 0 0
8:56 am 08:56 Sunny 31 -0.6 21 -6.1 67 67 S 6 9 30.2 1023 10 16.0934 0 0
9:56 am 09:56 Sunny 36 2.2 22 -5.6 57 57 S 10 17 30.19 1022 10 16.0934 0.06 1.524
10:56 am 10:56 Sunny 39 3.9 22 -5.6 50 50 S 16 26 30.15 1021 10 16.0934 0.02 0.508
11:56 am 11:56 Sunny 43 6.1 26 -3.3 51 51 S 14 22 30.12 1020 10 16.0934 0 0
12:56 pm 12:56 Sunny 46 7.8 30 -1.1 54 54 S 13 20 30.09 1019 10 16.0934 0 0
1:56 pm 13:56 Sunny 48 8.9 31 -0.6 52 52 S 15 24 30.05 1018 10 16.0934 0 0
2:56 pm 14:56 Sunny 51 10.6 34 1.1 52 52 S 10 17 30.01 1016 10 16.0934 0 0
3:56 pm 15:56 Sunny 52 11.1 35 1.7 53 53 S 13 20 29.98 1015 10 16.0934 0 0
4:56 pm 16:56 Sunny 52 11.1 38 3.3 59 59 SSE 10 17 29.97 1015 10 16.0934 0 0
5:56 pm 17:56 Sunny 51 10.6 38 3.3 61 61 SSE 13 20 29.95 1014 10 16.0934 0 0
6:56 pm 18:56 Clear 50 10 38 3.3 63 63 S 12 19 29.95 1014 10 16.0934 0 0
7:56 pm 19:56 Clear 50 10 38 3.3 63 63 S 12 19 29.94 1014 10 16.0934 0 0
8:56 pm 20:56 Cloudy 51 10.6 38 3.3 61 61 S 12 19 29.93 1013 10 16.0934 0 0
9:56 pm 21:56 Cloudy 52 11.1 38 3.3 59 59 S 14 22 29.92 1013 10 16.0934 0 0
10:56 pm 22:56 Mostly Cloudy 52 11.1 37 2.8 57 57 S 13 20 29.91 1013 10 16.0934 0 0
11:56 pm 23:56 Mostly Cloudy 51 10.6 37 2.8 59 59 SSW 10 17 29.9 1012 10 16.0934 0 0

Powered by AerisWeather